createdAt,value
2018-07-23T00:00:45.696Z,0.00
2018-07-23T00:01:45.676Z,0.00
2018-07-23T00:02:45.662Z,0.00
2018-07-23T00:03:45.682Z,0.00
2018-07-23T00:04:45.642Z,0.00
2018-07-23T00:05:45.634Z,0.00
2018-07-23T00:06:45.619Z,0.00
2018-07-23T00:07:45.611Z,0.00
2018-07-23T00:08:45.593Z,0.00
2018-07-23T00:09:45.599Z,0.00
2018-07-23T00:10:45.575Z,0.00
2018-07-23T00:11:45.561Z,0.00
2018-07-23T00:12:45.551Z,0.00
2018-07-23T00:13:45.543Z,0.00
2018-07-23T00:14:45.548Z,0.00
2018-07-23T00:15:45.516Z,0.00
2018-07-23T00:16:45.504Z,0.00
2018-07-23T00:17:45.511Z,0.00
2018-07-23T00:18:45.482Z,0.00
2018-07-23T00:19:45.473Z,0.00
2018-07-23T00:20:45.461Z,0.00
2018-07-23T00:21:45.455Z,0.00
2018-07-23T00:22:45.437Z,0.00
2018-07-23T00:23:45.437Z,0.00
2018-07-23T00:24:45.420Z,0.00
2018-07-23T00:25:45.408Z,0.00
2018-07-23T00:26:45.391Z,0.00
2018-07-23T00:27:45.374Z,0.00
2018-07-23T00:28:45.379Z,0.00
2018-07-23T00:29:45.349Z,0.00
2018-07-23T00:30:45.338Z,0.00
2018-07-23T00:31:45.329Z,0.00
2018-07-23T00:32:45.335Z,0.00
2018-07-23T00:33:45.309Z,0.00
2018-07-23T00:34:45.297Z,0.00
2018-07-23T00:35:45.282Z,0.00
2018-07-23T00:36:45.274Z,0.00
2018-07-23T00:37:45.282Z,0.00
2018-07-23T00:38:45.249Z,0.00
2018-07-23T00:39:45.240Z,0.00
2018-07-23T00:40:45.227Z,0.00
2018-07-23T00:41:45.213Z,0.00
2018-07-23T00:42:45.215Z,0.00
2018-07-23T00:43:45.207Z,0.00
2018-07-23T00:44:45.198Z,0.00
2018-07-23T00:45:45.172Z,0.00
2018-07-23T00:46:45.169Z,0.00
2018-07-23T00:47:45.148Z,0.00
2018-07-23T00:48:45.145Z,0.00
2018-07-23T00:49:45.147Z,0.00
2018-07-23T00:50:45.108Z,0.00
2018-07-23T00:51:45.101Z,0.00
2018-07-23T00:52:45.086Z,0.00
2018-07-23T00:53:45.075Z,0.00
2018-07-23T00:54:45.066Z,0.00
2018-07-23T00:55:45.072Z,0.00
2018-07-23T00:56:45.041Z,0.00
2018-07-23T00:57:45.031Z,0.00
2018-07-23T00:58:45.021Z,0.00
2018-07-23T00:59:45.005Z,0.00
2018-07-23T01:00:45.015Z,0.00
2018-07-23T01:01:44.982Z,0.00
2018-07-23T01:02:44.973Z,0.00
2018-07-23T01:03:44.961Z,0.00
2018-07-23T01:04:44.962Z,0.00
2018-07-23T01:05:44.947Z,0.00
2018-07-23T01:06:44.922Z,0.00
2018-07-23T01:07:44.911Z,0.00
2018-07-23T01:08:44.900Z,0.00
2018-07-23T01:09:44.887Z,0.00
2018-07-23T01:10:44.891Z,0.00
2018-07-23T01:11:44.864Z,0.00
2018-07-23T01:12:44.851Z,0.00
2018-07-23T01:13:44.842Z,0.00
2018-07-23T01:14:44.849Z,0.00
2018-07-23T01:15:44.820Z,0.00
2018-07-23T01:16:44.807Z,0.00
2018-07-23T01:17:44.796Z,0.00
2018-07-23T01:18:44.779Z,0.00
2018-07-23T01:19:44.766Z,0.00
2018-07-23T01:20:44.775Z,0.00
2018-07-23T01:21:44.746Z,0.00
2018-07-23T01:22:44.735Z,0.00
2018-07-23T01:23:44.721Z,0.00
2018-07-23T01:24:44.729Z,0.00
2018-07-23T01:25:44.718Z,0.00
2018-07-23T01:26:44.692Z,0.00
2018-07-23T01:27:44.675Z,0.00
2018-07-23T01:28:44.663Z,0.00
2018-07-23T01:29:44.670Z,0.00
2018-07-23T01:30:44.641Z,0.00
2018-07-23T01:31:44.646Z,0.00
2018-07-23T01:32:44.617Z,0.00
2018-07-23T01:33:44.605Z,0.00
2018-07-23T01:34:44.614Z,0.00
2018-07-23T01:35:44.576Z,0.00
2018-07-23T01:36:44.587Z,0.00
2018-07-23T01:37:44.557Z,0.00
2018-07-23T01:38:44.546Z,0.00
2018-07-23T01:39:44.529Z,0.00
2018-07-23T01:40:44.520Z,0.00
2018-07-23T01:41:44.513Z,0.00
2018-07-23T01:42:44.515Z,0.00
2018-07-23T01:43:44.489Z,0.00
2018-07-23T01:44:44.475Z,0.00
2018-07-23T01:45:44.465Z,0.00
2018-07-23T01:46:44.449Z,0.00
2018-07-23T01:47:44.452Z,0.00
2018-07-23T01:48:44.423Z,0.00
2018-07-23T01:49:44.414Z,0.00
2018-07-23T01:50:44.420Z,0.00
2018-07-23T01:51:44.388Z,0.00
2018-07-23T01:52:44.378Z,0.00
2018-07-23T01:53:44.383Z,0.00
2018-07-23T01:54:44.362Z,0.00
2018-07-23T01:55:44.341Z,0.00
2018-07-23T01:56:44.344Z,0.00
2018-07-23T01:57:44.327Z,0.00
2018-07-23T01:58:44.303Z,0.00
2018-07-23T01:59:44.295Z,0.00
2018-07-23T02:00:44.282Z,0.00
2018-07-23T02:01:44.292Z,0.00
2018-07-23T02:02:44.261Z,0.00
2018-07-23T02:03:44.257Z,0.00
2018-07-23T02:04:44.230Z,0.00
2018-07-23T02:05:44.221Z,0.00
2018-07-23T02:06:44.206Z,0.00
2018-07-23T02:07:44.215Z,0.00
2018-07-23T02:08:44.187Z,0.00
2018-07-23T02:09:44.182Z,0.00
2018-07-23T02:10:44.160Z,0.00
2018-07-23T02:11:44.150Z,0.00
2018-07-23T02:12:44.150Z,0.00
2018-07-23T02:13:44.132Z,0.00
2018-07-23T02:14:44.117Z,0.00
2018-07-23T02:15:44.114Z,0.00
2018-07-23T02:16:44.091Z,0.00
2018-07-23T02:17:44.077Z,0.00
2018-07-23T02:18:44.068Z,0.00
2018-07-23T02:19:44.055Z,0.00
2018-07-23T02:20:44.071Z,0.00
2018-07-23T02:21:44.036Z,0.00
2018-07-23T02:22:44.039Z,0.00
2018-07-23T02:23:44.011Z,0.00
2018-07-23T02:24:43.997Z,0.00
2018-07-23T02:25:43.982Z,0.00
2018-07-23T02:26:43.971Z,0.00
2018-07-23T02:27:43.973Z,0.00
2018-07-23T02:28:43.947Z,0.00
2018-07-23T02:29:43.934Z,0.00
2018-07-23T02:30:43.922Z,0.00
2018-07-23T02:31:43.911Z,0.00
2018-07-23T02:32:43.921Z,0.00
2018-07-23T02:33:43.891Z,0.00
2018-07-23T02:34:43.875Z,0.00
2018-07-23T02:35:43.862Z,0.00
2018-07-23T02:36:43.850Z,0.00
2018-07-23T02:37:43.856Z,0.00
2018-07-23T02:38:43.824Z,0.00
2018-07-23T02:39:43.816Z,0.00
2018-07-23T02:40:43.799Z,0.00
2018-07-23T02:41:43.809Z,0.00
2018-07-23T02:42:43.790Z,0.00
2018-07-23T02:43:43.768Z,0.00
2018-07-23T02:44:43.747Z,0.00
2018-07-23T02:45:43.739Z,0.00
2018-07-23T02:46:43.724Z,0.00
2018-07-23T02:47:43.719Z,0.00
2018-07-23T02:48:43.722Z,0.00
2018-07-23T02:49:43.694Z,0.00
2018-07-23T02:50:43.678Z,0.00
2018-07-23T02:51:43.664Z,0.00
2018-07-23T02:52:43.675Z,0.00
2018-07-23T02:53:43.655Z,0.00
2018-07-23T02:54:43.631Z,0.00
2018-07-23T02:55:43.617Z,0.00
2018-07-23T02:56:43.617Z,0.00
2018-07-23T02:57:43.592Z,0.00
2018-07-23T02:58:43.584Z,0.00
2018-07-23T02:59:43.675Z,0.00
2018-07-23T03:00:43.572Z,0.00
2018-07-23T03:01:43.546Z,0.00
2018-07-23T03:02:43.530Z,0.00
2018-07-23T03:03:43.518Z,0.00
2018-07-23T03:04:43.525Z,0.00
2018-07-23T03:05:43.501Z,0.00
2018-07-23T03:06:43.479Z,0.00
2018-07-23T03:07:43.468Z,0.00
2018-07-23T03:08:43.468Z,0.00
2018-07-23T03:09:43.442Z,0.00
2018-07-23T03:10:43.448Z,0.00
2018-07-23T03:11:43.421Z,0.00
2018-07-23T03:12:43.420Z,0.00
2018-07-23T03:13:43.399Z,0.00
2018-07-23T03:14:43.383Z,0.00
2018-07-23T03:15:43.371Z,0.00
2018-07-23T03:16:43.376Z,0.00
2018-07-23T03:17:43.342Z,0.00
2018-07-23T03:18:43.334Z,0.00
2018-07-23T03:19:43.337Z,0.00
2018-07-23T03:20:43.307Z,0.00
2018-07-23T03:21:43.314Z,0.00
2018-07-23T03:22:43.285Z,0.00
2018-07-23T03:23:43.272Z,0.00
2018-07-23T03:24:43.275Z,0.00
2018-07-23T03:25:43.246Z,4.00
2018-07-23T03:26:43.233Z,4.00
2018-07-23T03:27:43.227Z,4.00
2018-07-23T03:28:43.227Z,0.00
2018-07-23T03:29:43.208Z,0.00
2018-07-23T03:30:43.184Z,4.00
2018-07-23T03:31:43.173Z,4.00
2018-07-23T03:32:43.159Z,4.00
2018-07-23T03:33:43.146Z,4.00
2018-07-23T03:34:43.152Z,4.00
2018-07-23T03:35:43.126Z,4.00
2018-07-23T03:36:43.104Z,8.00
2018-07-23T03:37:43.095Z,4.00
2018-07-23T03:38:43.085Z,4.00
2018-07-23T03:39:43.090Z,8.00
2018-07-23T03:40:43.062Z,8.00
2018-07-23T03:41:43.048Z,8.00
2018-07-23T03:42:43.032Z,8.00
2018-07-23T03:43:43.043Z,12.00
2018-07-23T03:44:43.015Z,8.00
2018-07-23T03:45:42.996Z,12.00
2018-07-23T03:46:42.986Z,16.00
2018-07-23T03:47:42.974Z,12.00
2018-07-23T03:48:42.976Z,12.00
2018-07-23T03:49:42.971Z,16.00
2018-07-23T03:50:42.935Z,16.00
2018-07-23T03:51:42.920Z,16.00
2018-07-23T03:52:42.906Z,16.00
2018-07-23T03:53:42.894Z,20.00
2018-07-23T03:54:42.887Z,20.00
2018-07-23T03:55:42.896Z,20.00
2018-07-23T03:56:42.862Z,24.00
2018-07-23T03:57:42.839Z,24.00
2018-07-23T03:58:42.836Z,28.00
2018-07-23T03:59:42.820Z,28.00
2018-07-23T04:00:42.820Z,32.00
2018-07-23T04:01:42.791Z,36.00
2018-07-23T04:02:42.776Z,36.00
2018-07-23T04:03:42.768Z,36.00
2018-07-23T04:04:42.769Z,40.00
2018-07-23T04:05:42.749Z,44.00
2018-07-23T04:06:42.746Z,44.00
2018-07-23T04:07:42.720Z,48.00
2018-07-23T04:08:42.704Z,56.00
2018-07-23T04:09:42.692Z,56.00
2018-07-23T04:10:42.728Z,60.00
2018-07-23T04:11:42.685Z,64.00
2018-07-23T04:12:42.650Z,68.00
2018-07-23T04:13:42.650Z,72.00
2018-07-23T04:14:42.631Z,72.00
2018-07-23T04:15:42.634Z,76.00
2018-07-23T04:16:42.619Z,84.00
2018-07-23T04:17:42.605Z,88.00
2018-07-23T04:18:42.574Z,96.00
2018-07-23T04:19:42.571Z,96.00
2018-07-23T04:20:42.570Z,100.00
2018-07-23T04:21:42.555Z,104.00
2018-07-23T04:22:42.535Z,104.00
2018-07-23T04:23:42.531Z,100.00
2018-07-23T04:24:42.502Z,104.00
2018-07-23T04:25:42.491Z,108.00
2018-07-23T04:26:42.483Z,108.00
2018-07-23T04:27:42.480Z,108.00
2018-07-23T04:28:42.448Z,108.00
2018-07-23T04:29:42.441Z,112.00
2018-07-23T04:30:42.427Z,112.00
2018-07-23T04:31:42.411Z,116.00
2018-07-23T04:32:42.418Z,116.00
2018-07-23T04:33:42.388Z,120.00
2018-07-23T04:34:42.379Z,124.00
2018-07-23T04:35:42.368Z,128.00
2018-07-23T04:36:42.360Z,132.00
2018-07-23T04:37:42.340Z,136.00
2018-07-23T04:38:42.347Z,136.00
2018-07-23T04:39:42.324Z,140.00
2018-07-23T04:40:42.304Z,136.00
2018-07-23T04:41:42.293Z,144.00
2018-07-23T04:42:42.277Z,144.00
2018-07-23T04:43:42.269Z,148.00
2018-07-23T04:44:42.276Z,148.00
2018-07-23T04:45:42.248Z,148.00
2018-07-23T04:46:42.229Z,148.00
2018-07-23T04:47:42.220Z,148.00
2018-07-23T04:48:42.226Z,152.00
2018-07-23T04:49:42.214Z,152.00
2018-07-23T04:50:42.243Z,156.00
2018-07-23T04:51:42.170Z,156.00
2018-07-23T04:52:42.157Z,160.00
2018-07-23T04:53:42.148Z,168.00
2018-07-23T04:54:42.152Z,176.00
2018-07-23T04:55:42.133Z,188.00
2018-07-23T04:56:42.175Z,188.00
2018-07-23T04:57:42.099Z,188.00
2018-07-23T04:58:42.100Z,192.00
2018-07-23T04:59:42.088Z,188.00
2018-07-23T05:00:42.093Z,188.00
2018-07-23T05:01:42.063Z,188.00
2018-07-23T05:02:42.039Z,192.00
2018-07-23T05:03:42.034Z,192.00
2018-07-23T05:04:42.036Z,204.00
2018-07-23T05:05:42.014Z,208.00
2018-07-23T05:06:41.990Z,224.00
2018-07-23T05:07:41.983Z,232.00
2018-07-23T05:08:41.985Z,248.00
2018-07-23T05:09:41.951Z,260.00
2018-07-23T05:10:41.957Z,264.00
2018-07-23T05:11:41.950Z,264.00
2018-07-23T05:12:41.918Z,272.00
2018-07-23T05:13:41.912Z,284.00
2018-07-23T05:14:41.894Z,288.00
2018-07-23T05:15:41.897Z,284.00
2018-07-23T05:16:41.891Z,292.00
2018-07-23T05:17:41.859Z,304.00
2018-07-23T05:18:41.854Z,316.00
2018-07-23T05:19:41.837Z,324.00
2018-07-23T05:20:41.837Z,336.00
2018-07-23T05:21:41.807Z,348.00
2018-07-23T05:22:41.798Z,360.00
2018-07-23T05:23:41.786Z,392.00
2018-07-23T05:24:41.794Z,408.00
2018-07-23T05:26:02.790Z,420.00
2018-07-23T05:26:41.751Z,428.00
2018-07-23T05:27:41.742Z,420.00
2018-07-23T05:28:41.728Z,416.00
2018-07-23T05:29:41.715Z,408.00
2018-07-23T05:30:41.705Z,400.00
2018-07-23T05:31:41.811Z,388.00
2018-07-23T05:32:41.683Z,372.00
2018-07-23T05:33:41.675Z,364.00
2018-07-23T05:34:41.659Z,352.00
2018-07-23T05:35:41.650Z,344.00
2018-07-23T05:36:41.645Z,368.00
2018-07-23T05:37:41.625Z,404.00
2018-07-23T05:38:41.611Z,432.00
2018-07-23T05:39:41.600Z,440.00
2018-07-23T05:40:41.591Z,444.00
2018-07-23T05:41:41.588Z,464.00
2018-07-23T05:42:41.566Z,488.00
2018-07-23T05:43:41.555Z,500.00
2018-07-23T05:44:41.542Z,508.00
2018-07-23T05:45:41.530Z,520.00
2018-07-23T05:46:41.542Z,528.00
2018-07-23T05:47:41.509Z,524.00
2018-07-23T05:48:41.495Z,508.00
2018-07-23T05:49:41.497Z,488.00
2018-07-23T05:50:41.471Z,476.00
2018-07-23T05:51:41.462Z,476.00
2018-07-23T05:52:41.478Z,456.00
2018-07-23T05:53:41.441Z,424.00
2018-07-23T05:54:41.433Z,424.00
2018-07-23T05:55:41.422Z,444.00
2018-07-23T05:56:41.405Z,456.00
2018-07-23T05:57:41.429Z,444.00
2018-07-23T05:58:41.385Z,416.00
2018-07-23T05:59:41.376Z,400.00
2018-07-23T06:00:41.361Z,432.00
2018-07-23T06:01:41.357Z,512.00
2018-07-23T06:02:41.338Z,600.00
2018-07-23T06:03:41.386Z,632.00
2018-07-23T06:04:41.313Z,628.00
2018-07-23T06:05:41.309Z,604.00
2018-07-23T06:06:41.308Z,576.00
2018-07-23T06:07:41.305Z,560.00
2018-07-23T06:08:41.271Z,544.00
2018-07-23T06:09:41.264Z,580.00
2018-07-23T06:10:41.254Z,612.00
2018-07-23T06:11:41.242Z,620.00
2018-07-23T06:12:41.226Z,576.00
2018-07-23T06:13:41.232Z,532.00
2018-07-23T06:14:41.206Z,500.00
2018-07-23T06:15:41.197Z,536.00
2018-07-23T06:16:41.184Z,620.00
2018-07-23T06:17:41.173Z,680.00
2018-07-23T06:18:41.159Z,640.00
2018-07-23T06:19:41.168Z,568.00
2018-07-23T06:20:41.140Z,512.00
2018-07-23T06:21:41.125Z,476.00
2018-07-23T06:22:41.114Z,436.00
2018-07-23T06:23:41.108Z,420.00
2018-07-23T06:24:41.122Z,428.00
2018-07-23T06:25:41.129Z,460.00
2018-07-23T06:26:41.075Z,484.00
2018-07-23T06:27:41.063Z,508.00
2018-07-23T06:28:41.053Z,520.00
2018-07-23T06:29:41.060Z,532.00
2018-07-23T06:30:41.039Z,552.00
2018-07-23T06:31:41.016Z,612.00
2018-07-23T06:32:41.019Z,656.00
2018-07-23T06:33:41.004Z,672.00
2018-07-23T06:34:40.987Z,684.00
2018-07-23T06:35:40.989Z,704.00
2018-07-23T06:36:40.965Z,760.00
2018-07-23T06:37:40.994Z,808.00
2018-07-23T06:38:40.945Z,812.00
2018-07-23T06:39:40.934Z,832.00
2018-07-23T06:40:40.935Z,892.00
2018-07-23T06:41:40.914Z,968.00
2018-07-23T06:42:40.899Z,1000.00
2018-07-23T06:43:40.888Z,972.00
2018-07-23T06:44:40.900Z,920.00
2018-07-23T06:45:40.865Z,868.00
2018-07-23T06:46:40.919Z,820.00
2018-07-23T06:47:40.850Z,808.00
2018-07-23T06:48:40.843Z,852.00
2018-07-23T06:49:40.830Z,940.00
2018-07-23T06:50:40.830Z,984.00
2018-07-23T06:51:40.824Z,944.00
2018-07-23T06:52:40.799Z,916.00
2018-07-23T06:53:40.787Z,928.00
2018-07-23T06:54:40.775Z,956.00
2018-07-23T06:55:40.771Z,956.00
2018-07-23T06:56:40.771Z,976.00
2018-07-23T06:57:40.748Z,988.00
2018-07-23T06:58:40.971Z,988.00
2018-07-23T06:59:41.789Z,956.00
2018-07-23T07:00:40.758Z,916.00
2018-07-23T07:01:40.702Z,888.00
2018-07-23T07:02:40.718Z,872.00
2018-07-23T07:03:40.681Z,856.00
2018-07-23T07:04:40.673Z,864.00
2018-07-23T07:05:42.644Z,852.00
2018-07-23T07:06:41.770Z,876.00
2018-07-23T07:07:40.641Z,920.00
2018-07-23T07:08:40.656Z,948.00
2018-07-23T07:09:40.623Z,952.00
2018-07-23T07:10:40.615Z,960.00
2018-07-23T07:11:40.609Z,984.00
2018-07-23T07:12:40.627Z,1000.00
2018-07-23T07:13:40.586Z,1028.00
2018-07-23T07:14:40.590Z,1028.00
2018-07-23T07:15:40.564Z,1008.00
2018-07-23T07:16:40.547Z,1008.00
2018-07-23T07:17:40.562Z,1048.00
2018-07-23T07:18:40.539Z,1084.00
2018-07-23T07:19:40.534Z,1104.00
2018-07-23T07:20:40.512Z,1092.00
2018-07-23T07:21:40.497Z,1072.00
2018-07-23T07:22:40.499Z,1064.00
2018-07-23T07:23:40.477Z,1032.00
2018-07-23T07:24:40.491Z,988.00
2018-07-23T07:25:40.461Z,960.00
2018-07-23T07:26:40.451Z,988.00
2018-07-23T07:27:40.442Z,1016.00
2018-07-23T07:28:40.435Z,1004.00
2018-07-23T07:29:40.442Z,992.00
2018-07-23T07:30:40.416Z,976.00
2018-07-23T07:31:40.412Z,976.00
2018-07-23T07:32:40.391Z,972.00
2018-07-23T07:33:40.384Z,960.00
2018-07-23T07:34:40.401Z,988.00
2018-07-23T07:35:40.368Z,1004.00
2018-07-23T07:36:40.355Z,968.00
2018-07-23T07:37:40.342Z,924.00
2018-07-23T07:38:40.335Z,916.00
2018-07-23T07:39:40.325Z,920.00
2018-07-23T07:40:40.348Z,932.00
2018-07-23T07:41:40.301Z,928.00
2018-07-23T07:42:40.301Z,920.00
2018-07-23T07:43:40.283Z,936.00
2018-07-23T07:44:40.274Z,968.00
2018-07-23T07:45:40.267Z,996.00
2018-07-23T07:46:40.279Z,1008.00
2018-07-23T07:47:40.250Z,1016.00
2018-07-23T07:48:40.253Z,1028.00
2018-07-23T07:49:40.227Z,1020.00
2018-07-23T07:50:40.246Z,996.00
2018-07-23T07:51:40.240Z,992.00
2018-07-23T07:53:06.466Z,968.00
2018-07-23T07:53:40.192Z,952.00
2018-07-23T07:54:40.186Z,924.00
2018-07-23T07:55:40.172Z,904.00
2018-07-23T07:56:40.164Z,908.00
2018-07-23T07:57:40.175Z,936.00
2018-07-23T07:58:40.142Z,996.00
2018-07-23T07:59:40.137Z,1048.00
2018-07-23T08:00:40.125Z,1044.00
2018-07-23T08:01:40.117Z,1020.00
2018-07-23T08:02:40.145Z,1004.00
2018-07-23T08:03:40.096Z,996.00
2018-07-23T08:04:40.086Z,996.00
2018-07-23T08:05:40.074Z,1000.00
2018-07-23T08:06:40.076Z,1020.00
2018-07-23T08:07:40.059Z,1060.00
2018-07-23T08:08:40.065Z,1076.00
2018-07-23T08:09:40.044Z,1104.00
2018-07-23T08:10:40.050Z,1144.00
2018-07-23T08:11:40.019Z,1192.00
2018-07-23T08:13:01.051Z,1232.00
2018-07-23T08:13:40.006Z,1280.00
2018-07-23T08:14:40.020Z,1336.00
2018-07-23T08:15:39.992Z,1424.00
2018-07-23T08:16:40.715Z,1512.00
2018-07-23T08:17:39.984Z,1584.00
2018-07-23T08:18:39.982Z,1668.00
2018-07-23T08:19:39.950Z,1712.00
2018-07-23T08:20:39.938Z,1724.00
2018-07-23T08:21:39.934Z,1752.00
2018-07-23T08:22:39.944Z,1752.00
2018-07-23T08:23:39.925Z,1732.00
2018-07-23T08:24:39.922Z,1700.00
2018-07-23T08:25:39.890Z,1684.00
2018-07-23T08:26:39.905Z,1732.00
2018-07-23T08:27:39.880Z,1832.00
2018-07-23T08:28:39.870Z,1912.00
2018-07-23T08:29:39.873Z,1924.00
2018-07-23T08:30:39.852Z,1992.00
2018-07-23T08:31:39.908Z,2060.00
2018-07-23T08:32:39.832Z,2104.00
2018-07-23T08:33:39.826Z,2192.00
2018-07-23T08:34:39.835Z,2248.00
2018-07-23T08:35:39.810Z,2220.00
2018-07-23T08:36:39.810Z,2188.00
2018-07-23T08:37:39.789Z,2132.00
2018-07-23T08:38:39.787Z,2104.00
2018-07-23T08:39:39.833Z,2112.00
2018-07-23T08:40:39.759Z,2152.00
2018-07-23T08:41:39.754Z,2220.00
2018-07-23T08:42:39.746Z,2280.00
2018-07-23T08:43:39.740Z,2332.00
2018-07-23T08:44:39.761Z,2352.00
2018-07-23T08:45:39.739Z,2356.00
2018-07-23T08:46:39.717Z,2424.00
2018-07-23T08:47:39.709Z,2572.00
2018-07-23T08:48:39.703Z,2740.00
2018-07-23T08:49:39.682Z,2716.00
2018-07-23T08:50:39.691Z,2628.00
2018-07-23T08:51:39.673Z,2520.00
2018-07-23T08:52:39.662Z,2492.00
2018-07-23T08:53:39.649Z,2552.00
2018-07-23T08:54:39.646Z,2652.00
2018-07-23T08:55:39.640Z,2696.00
2018-07-23T08:56:39.644Z,2596.00
2018-07-23T08:57:39.655Z,2568.00
2018-07-23T08:58:39.614Z,2596.00
2018-07-23T08:59:39.605Z,2664.00
2018-07-23T09:00:39.596Z,2712.00
2018-07-23T09:01:39.586Z,2780.00
2018-07-23T09:02:39.609Z,2964.00
2018-07-23T09:03:39.576Z,3068.00
2018-07-23T09:04:39.560Z,3008.00
2018-07-23T09:05:39.553Z,3260.00
2018-07-23T09:06:39.549Z,3232.00
2018-07-23T09:07:39.564Z,3064.00
2018-07-23T09:08:39.614Z,3040.00
2018-07-23T09:09:39.521Z,3092.00
2018-07-23T09:10:39.519Z,3592.00
2018-07-23T09:11:39.513Z,3420.00
2018-07-23T09:12:39.521Z,3924.00
2018-07-23T09:13:39.497Z,3644.00
2018-07-23T09:14:39.487Z,5360.00
2018-07-23T09:15:39.482Z,4876.00
2018-07-23T09:16:39.477Z,10772.00
2018-07-23T09:17:39.481Z,11616.00
2018-07-23T09:18:39.458Z,13464.00
2018-07-23T09:19:39.465Z,11800.00
2018-07-23T09:20:39.456Z,9776.00
2018-07-23T09:21:39.434Z,6236.00
2018-07-23T09:22:39.430Z,8572.00
2018-07-23T09:23:39.463Z,9296.00
2018-07-23T09:24:39.416Z,5376.00
2018-07-23T09:25:39.408Z,5064.00
2018-07-23T09:26:39.403Z,5300.00
2018-07-23T09:27:39.412Z,6840.00
2018-07-23T09:28:39.387Z,4832.00
2018-07-23T09:29:39.404Z,3308.00
2018-07-23T09:30:39.375Z,3832.00
2018-07-23T09:31:39.367Z,2852.00
2018-07-23T09:32:39.362Z,2592.00
2018-07-23T09:33:39.371Z,2612.00
2018-07-23T09:34:39.367Z,2724.00
2018-07-23T09:35:39.347Z,2600.00
2018-07-23T09:36:39.340Z,2752.00
2018-07-23T09:37:39.331Z,2804.00
2018-07-23T09:38:39.328Z,3120.00
2018-07-23T09:39:39.335Z,2772.00
2018-07-23T09:40:39.319Z,2676.00
2018-07-23T09:41:39.314Z,2572.00
2018-07-23T09:42:39.304Z,2756.00
2018-07-23T09:43:39.302Z,3240.00
2018-07-23T09:44:39.779Z,4488.00
2018-07-23T09:45:39.312Z,3728.00
2018-07-23T09:46:39.279Z,3288.00
2018-07-23T09:47:39.272Z,6384.00
2018-07-23T09:48:39.267Z,3976.00
2018-07-23T09:49:39.260Z,3716.00
2018-07-23T09:50:39.268Z,4744.00
2018-07-23T09:51:39.248Z,2772.00
2018-07-23T09:52:39.256Z,2540.00
2018-07-23T09:53:39.240Z,2624.00
2018-07-23T09:54:39.232Z,2652.00
2018-07-23T09:55:39.256Z,2584.00
2018-07-23T09:56:39.225Z,2520.00
2018-07-23T09:57:39.214Z,2584.00
2018-07-23T09:58:39.218Z,2988.00
2018-07-23T09:59:39.199Z,3332.00
2018-07-23T10:00:39.204Z,3164.00
2018-07-23T10:01:39.208Z,3068.00
2018-07-23T10:02:39.186Z,3104.00
2018-07-23T10:03:39.210Z,3060.00
2018-07-23T10:04:39.176Z,3300.00
2018-07-23T10:05:39.170Z,3376.00
2018-07-23T10:06:39.179Z,3260.00
2018-07-23T10:07:39.156Z,3152.00
2018-07-23T10:08:39.151Z,3320.00
2018-07-23T10:09:39.155Z,3336.00
2018-07-23T10:11:00.179Z,3356.00
2018-07-23T10:11:39.134Z,3444.00
2018-07-23T10:12:39.128Z,3956.00
2018-07-23T10:13:39.129Z,6404.00
2018-07-23T10:14:39.123Z,6776.00
2018-07-23T10:15:39.136Z,5652.00
2018-07-23T10:16:39.107Z,5468.00
2018-07-23T10:17:39.104Z,5584.00
2018-07-23T10:18:39.094Z,4708.00
2018-07-23T10:19:39.094Z,4060.00
2018-07-23T10:20:39.083Z,3544.00
2018-07-23T10:21:39.101Z,3292.00
2018-07-23T10:22:39.068Z,3360.00
2018-07-23T10:23:39.064Z,3176.00
2018-07-23T10:24:39.075Z,3172.00
2018-07-23T10:25:39.058Z,3184.00
2018-07-23T10:26:39.063Z,3168.00
2018-07-23T10:27:39.077Z,3328.00
2018-07-23T10:28:39.037Z,3924.00
2018-07-23T10:29:39.038Z,5356.00
2018-07-23T10:30:39.034Z,7392.00
2018-07-23T10:31:39.027Z,5760.00
2018-07-23T10:32:39.021Z,5172.00
2018-07-23T10:33:39.034Z,13660.00
2018-07-23T10:34:39.009Z,6152.00
2018-07-23T10:35:39.005Z,6456.00
2018-07-23T10:36:39.001Z,6348.00
2018-07-23T10:37:39.029Z,9864.00
2018-07-23T10:38:38.993Z,5964.00
2018-07-23T10:39:38.987Z,8480.00
2018-07-23T10:40:38.985Z,7652.00
2018-07-23T10:41:38.983Z,6428.00
2018-07-23T10:42:38.978Z,12240.00
2018-07-23T10:43:38.997Z,18944.00
2018-07-23T10:44:38.966Z,7324.00
2018-07-23T10:45:38.959Z,12556.00
2018-07-23T10:46:38.950Z,12320.00
2018-07-23T10:47:38.962Z,6936.00
2018-07-23T10:48:38.950Z,9124.00
2018-07-23T10:49:38.962Z,8744.00
2018-07-23T10:50:38.943Z,8984.00
2018-07-23T10:51:38.940Z,18240.00
2018-07-23T10:52:38.929Z,10776.00
2018-07-23T10:53:38.964Z,5604.00
2018-07-23T10:54:38.956Z,5536.00
2018-07-23T10:55:38.927Z,4268.00
2018-07-23T10:56:38.923Z,4116.00
2018-07-23T10:57:38.918Z,4644.00
2018-07-23T10:58:38.915Z,6972.00
2018-07-23T10:59:38.920Z,5492.00
2018-07-23T11:00:38.924Z,5192.00
2018-07-23T11:01:38.913Z,14348.00
2018-07-23T11:02:38.910Z,11236.00
2018-07-23T11:03:38.908Z,12604.00
2018-07-23T11:04:38.907Z,20992.00
2018-07-23T11:05:38.895Z,17248.00
2018-07-23T11:06:38.927Z,13408.00
2018-07-23T11:07:38.917Z,19776.00
2018-07-23T11:08:38.893Z,19360.00
2018-07-23T11:09:38.939Z,19328.00
2018-07-23T11:10:38.882Z,18432.00
2018-07-23T11:11:38.883Z,20128.00
2018-07-23T11:12:38.880Z,18400.00
2018-07-23T11:13:38.879Z,17952.00
2018-07-23T11:14:38.893Z,18304.00
2018-07-23T11:15:38.881Z,17568.00
2018-07-23T11:16:59.935Z,14816.00
2018-07-23T11:17:38.871Z,15456.00
2018-07-23T11:18:38.883Z,3980.00
2018-07-23T11:19:38.893Z,3280.00
2018-07-23T11:20:38.877Z,4372.00
2018-07-23T11:21:38.873Z,3616.00
2018-07-23T11:22:38.880Z,6948.00
2018-07-23T11:23:38.879Z,13172.00
2018-07-23T11:24:45.388Z,13364.00
2018-07-23T11:25:39.949Z,13200.00
2018-07-23T11:26:38.890Z,14012.00
2018-07-23T11:27:38.877Z,13816.00
2018-07-23T11:28:38.876Z,12540.00
2018-07-23T11:29:38.887Z,12740.00
2018-07-23T11:30:38.877Z,10404.00
2018-07-23T11:31:38.890Z,12864.00
2018-07-23T11:32:38.889Z,4300.00
2018-07-23T11:33:38.877Z,3232.00
2018-07-23T11:34:38.903Z,7712.00
2018-07-23T11:35:38.877Z,8656.00
2018-07-23T11:36:38.955Z,7744.00
2018-07-23T11:37:38.903Z,3940.00
2018-07-23T11:38:38.875Z,8120.00
2018-07-23T11:39:38.877Z,8196.00
2018-07-23T11:40:38.879Z,4552.00
2018-07-23T11:41:38.928Z,2332.00
2018-07-23T11:42:38.896Z,2008.00
2018-07-23T11:43:38.894Z,1972.00
2018-07-23T11:44:38.882Z,2072.00
2018-07-23T11:45:38.896Z,4284.00
2018-07-23T11:46:38.881Z,4892.00
2018-07-23T11:47:38.877Z,6464.00
2018-07-23T11:48:38.892Z,2968.00
2018-07-23T11:49:38.880Z,6164.00
2018-07-23T11:50:38.888Z,5760.00
2018-07-23T11:51:38.880Z,7100.00
2018-07-23T11:52:38.875Z,2784.00
2018-07-23T11:53:38.943Z,7096.00
2018-07-23T11:54:38.875Z,2320.00
2018-07-23T11:55:38.871Z,1936.00
2018-07-23T11:56:38.889Z,1604.00
2018-07-23T11:57:38.884Z,1488.00
2018-07-23T11:58:38.871Z,1396.00
2018-07-23T11:59:38.898Z,1304.00
2018-07-23T12:00:38.867Z,1296.00
2018-07-23T12:01:38.901Z,1372.00
2018-07-23T12:02:38.872Z,1524.00
2018-07-23T12:03:38.867Z,3992.00
2018-07-23T12:04:38.983Z,3940.00
2018-07-23T12:05:38.861Z,4412.00
2018-07-23T12:06:38.857Z,4724.00
2018-07-23T12:07:38.858Z,4936.00
2018-07-23T12:08:38.858Z,7008.00
2018-07-23T12:09:38.867Z,7240.00
2018-07-23T12:10:38.856Z,6708.00
2018-07-23T12:11:38.868Z,7084.00
2018-07-23T12:12:38.849Z,6664.00
2018-07-23T12:13:38.852Z,6000.00
2018-07-23T12:14:38.872Z,5928.00
2018-07-23T12:15:38.846Z,5976.00
2018-07-23T12:16:38.863Z,3460.00
2018-07-23T12:17:38.864Z,4944.00
2018-07-23T12:18:38.850Z,4488.00
2018-07-23T12:19:38.887Z,2720.00
2018-07-23T12:20:38.862Z,5816.00
2018-07-23T12:21:38.848Z,6224.00
2018-07-23T12:22:38.850Z,4292.00
2018-07-23T12:23:38.855Z,3468.00
2018-07-23T12:24:38.848Z,2716.00
2018-07-23T12:25:38.869Z,2560.00
2018-07-23T12:26:38.859Z,2472.00
2018-07-23T12:27:38.868Z,2268.00
2018-07-23T12:28:38.850Z,2292.00
2018-07-23T12:29:40.393Z,2272.00
2018-07-23T12:30:38.878Z,2284.00
2018-07-23T12:31:38.882Z,2732.00
2018-07-23T12:32:38.875Z,3880.00
2018-07-23T12:33:39.745Z,3912.00